Detall de PIREP

Printer-friendly versionPDF version

[2017/04/08 09:13:00]
Flight IATA:CT1004
Pilot Number:012
Company ICAO:CAT
Aircraft Type:A320/E
PAX:150
Departing Airport: LIEA
Destination Airport: BKPR
Alternate Airport:LWSK
Online: VATSIM
Route:KOLUS ROXAN UNIXO ISKIA LUNAR MOKTO GOKEL UM603 TSL UM987 EVIVI M987 WAK N739 PIDOR T214 LETNI T263 XAXAN
Flight Level:F370
No Slew and time accel
No pause
Crash detect
Detect pilot in Cockpit between each 30 and 45 minutes
09:13 Zero fuel Weight: 120805 Lbs, Fuel Weight: 20425 Lbs
09:13 VATSIM:LIEA 080850Z VRB02KT CAVOK 19/06 Q1022
09:13 VATSIM:BKPR 080900Z 35006KT 9999 SCT030 BKN060 10/01 Q1019 NOSIG
09:13 EASTER CHARTER
09:24 Parking Brakes off
09:29 Take-off
09:29 Take off Weight: 140468 Lbs
09:29 Wind: 358º @ 002 Knots Heading: 204º
09:29 POS N40º 37´ 30´´ E008º 17´ 11´´
09:29 Flaps:3 at 180 Knots
09:29 Gear Up: 186 Knots
09:30 Flaps:2 at 203 Knots
09:30 Flaps:0at 203 Knots
09:44 Wind:045º@017 Knots Heading: 080º Ground Speed: 449 Knots Altitude 31056 ft
09:48 TOC
09:48 Fuel Weight: 15411 Lb
09:59 Wind:020º@015 Knots Heading: 089º Ground Speed: 444 Knots Altitude 37201 ft
10:14 Wind:013º@015 Knots Heading: 084º Ground Speed: 447 Knots Altitude 37230 ft
10:29 Wind:341º@021 Knots Heading: 087º Ground Speed: 457 Knots Altitude 37217 ft
10:43 TOD
10:43 Fuel Weight: 10505 Lb
10:44 Wind:337º@030 Knots Heading: 044º Ground Speed: 424 Knots Altitude 35580 ft
10:59 Wind:359º@036 Knots Heading: 044º Ground Speed: 312 Knots Altitude 14996 ft
11:04 Flaps:1 at 233 Knots
11:04 Gear Down: 225 Knots
11:04 Flaps:3 at 225 Knots
11:04 Flaps:4 at 174 Knots
11:04 Flaps:5 at 168 Knots
11:09 TouchDown:Rate -279 ft/min Speed: 132 Knots
11:10 VATSIM:BKPR 081100Z 31016KT 9999 SCT030 BKN060 11/01 Q1020 NOSIG
11:10 Land
11:10 Wind:318º@009 Knots
11:10 Heading: 355º
11:10 Flight Duration: 01:41
11:10 Landing Weight: 129097 Lbs
11:10 POS N42º 34´ 40´´ E021º 02´ 07´´
11:11 Parking brakes on
11:11 Block to Block Duration: 01:47
11:11 Final Fuel: 8128 Lbls
11:11 Spent Fuel: 12297 Lbls
11:11 Flight Length: 674 NM
11:11 TOD Land Length: 144 NM

Exportar CSV

Powered by Drupal - Modified by Danger4k